createdAt,value
2023-05-13T00:00:38.456Z,43.60
2023-05-13T00:01:41.742Z,43.60
2023-05-13T00:02:44.037Z,43.60
2023-05-13T00:03:48.035Z,43.60
2023-05-13T00:04:50.429Z,43.60
2023-05-13T00:05:53.883Z,43.60
2023-05-13T00:06:56.077Z,43.60
2023-05-13T00:08:02.229Z,43.60
2023-05-13T00:09:04.801Z,43.60
2023-05-13T00:10:07.648Z,43.60
2023-05-13T00:11:09.915Z,43.60
2023-05-13T00:12:12.108Z,43.50
2023-05-13T00:13:14.578Z,43.60
2023-05-13T00:14:16.894Z,43.60
2023-05-13T00:15:19.179Z,43.60
2023-05-13T00:16:24.229Z,43.60
2023-05-13T00:17:26.726Z,43.60
2023-05-13T00:18:29.071Z,43.60
2023-05-13T00:19:31.889Z,43.70
2023-05-13T00:20:34.244Z,43.60
2023-05-13T00:21:36.761Z,43.60
2023-05-13T00:22:39.024Z,43.60
2023-05-13T00:23:41.870Z,43.60
2023-05-13T00:24:44.076Z,43.70
2023-05-13T00:25:46.408Z,43.60
2023-05-13T00:26:48.764Z,43.60
2023-05-13T00:27:51.327Z,43.60
2023-05-13T00:28:53.587Z,43.70
2023-05-13T00:29:55.877Z,43.70
2023-05-13T00:30:58.462Z,43.60
2023-05-13T00:32:00.762Z,43.70
2023-05-13T00:33:03.614Z,43.60
2023-05-13T00:34:05.975Z,43.60
2023-05-13T00:35:08.672Z,43.60
2023-05-13T00:36:12.435Z,43.60
2023-05-13T00:37:15.983Z,43.70
2023-05-13T00:38:18.231Z,43.60
2023-05-13T00:39:20.464Z,43.60
2023-05-13T00:40:24.553Z,43.60
2023-05-13T00:41:27.785Z,43.60
2023-05-13T00:42:31.897Z,43.60
2023-05-13T00:43:35.021Z,43.60
2023-05-13T00:44:37.208Z,43.60
2023-05-13T00:45:39.552Z,43.60
2023-05-13T00:46:42.391Z,43.60
2023-05-13T00:47:45.019Z,44.30
2023-05-13T00:48:47.909Z,43.70
2023-05-13T00:49:50.316Z,43.70
2023-05-13T00:50:52.911Z,43.70
2023-05-13T00:51:55.408Z,43.70
2023-05-13T00:52:58.705Z,43.70
2023-05-13T00:54:01.352Z,43.70
2023-05-13T00:55:05.574Z,43.70
2023-05-13T00:56:08.275Z,43.80
2023-05-13T00:57:10.666Z,43.70
2023-05-13T00:58:13.190Z,43.70
2023-05-13T00:59:16.926Z,43.70
2023-05-13T01:00:19.538Z,43.80
2023-05-13T01:01:37.018Z,43.70
2023-05-13T01:02:45.742Z,43.70
2023-05-13T01:03:48.206Z,43.70
2023-05-13T01:05:03.183Z,43.70
2023-05-13T01:06:18.141Z,43.70
2023-05-13T01:07:25.031Z,43.70
2023-05-13T01:08:37.728Z,43.80
2023-05-13T01:09:58.566Z,43.70
2023-05-13T01:11:11.882Z,43.70
2023-05-13T01:12:18.706Z,43.80
2023-05-13T01:13:24.342Z,43.80
2023-05-13T01:14:32.963Z,43.70
2023-05-13T01:15:39.722Z,43.80
2023-05-13T01:16:46.423Z,43.70
2023-05-13T01:18:07.047Z,43.80
2023-05-13T01:19:18.462Z,43.70
2023-05-13T01:20:21.964Z,43.70
2023-05-13T01:21:28.026Z,43.80
2023-05-13T01:22:31.072Z,43.80
2023-05-13T01:23:33.751Z,43.80
2023-05-13T01:24:36.879Z,43.80
2023-05-13T01:25:41.767Z,43.70
2023-05-13T01:26:44.061Z,43.80
2023-05-13T01:27:46.529Z,43.80
2023-05-13T01:28:50.941Z,43.70
2023-05-13T01:29:56.056Z,43.80
2023-05-13T01:31:03.051Z,43.80
2023-05-13T01:32:05.952Z,43.80
2023-05-13T01:33:08.246Z,43.80
2023-05-13T01:34:11.702Z,43.80
2023-05-13T01:35:14.759Z,43.80
2023-05-13T01:36:20.047Z,43.90
2023-05-13T01:37:23.697Z,43.80
2023-05-13T01:38:27.584Z,43.80
2023-05-13T01:39:32.188Z,43.80
2023-05-13T01:40:40.151Z,43.80
2023-05-13T01:41:45.133Z,43.90
2023-05-13T01:42:47.719Z,44.40
2023-05-13T01:43:50.949Z,43.80
2023-05-13T01:44:53.206Z,43.80
2023-05-13T01:46:00.351Z,43.80
2023-05-13T01:47:03.053Z,43.80
2023-05-13T01:48:06.285Z,43.80
2023-05-13T01:49:17.231Z,43.80
2023-05-13T01:50:21.220Z,43.90
2023-05-13T01:51:23.700Z,43.90
2023-05-13T01:52:26.032Z,43.80
2023-05-13T01:53:28.929Z,43.80
2023-05-13T01:54:34.904Z,43.90
2023-05-13T01:55:41.794Z,43.80
2023-05-13T01:56:44.804Z,43.90
2023-05-13T01:57:49.616Z,43.90
2023-05-13T01:58:53.500Z,43.90
2023-05-13T01:59:56.078Z,43.90
2023-05-13T02:00:58.327Z,43.90
2023-05-13T02:02:01.101Z,44.40
2023-05-13T02:03:03.505Z,43.90
2023-05-13T02:04:06.358Z,44.50
2023-05-13T02:05:08.980Z,43.90
2023-05-13T02:06:11.540Z,43.90
2023-05-13T02:07:17.076Z,43.90
2023-05-13T02:08:25.503Z,43.90
2023-05-13T02:09:27.830Z,43.90
2023-05-13T02:10:30.023Z,43.90
2023-05-13T02:11:33.402Z,44.00
2023-05-13T02:12:35.631Z,43.90
2023-05-13T02:13:39.334Z,43.90
2023-05-13T02:14:41.633Z,43.90
2023-05-13T02:15:44.099Z,44.00
2023-05-13T02:16:46.411Z,44.20
2023-05-13T02:17:48.771Z,43.90
2023-05-13T02:18:51.516Z,43.90
2023-05-13T02:19:54.092Z,44.00
2023-05-13T02:20:57.508Z,43.90
2023-05-13T02:21:59.760Z,43.90
2023-05-13T02:23:02.981Z,43.90
2023-05-13T02:24:05.538Z,43.90
2023-05-13T02:25:11.961Z,43.90
2023-05-13T02:26:14.245Z,43.90
2023-05-13T02:27:16.653Z,43.90
2023-05-13T02:28:19.081Z,43.90
2023-05-13T02:29:21.351Z,43.90
2023-05-13T02:30:26.964Z,43.90
2023-05-13T02:31:29.252Z,43.90
2023-05-13T02:32:31.508Z,43.90
2023-05-13T02:33:34.012Z,44.00
2023-05-13T02:34:36.350Z,44.00
2023-05-13T02:35:41.111Z,44.00
2023-05-13T02:36:43.391Z,44.00
2023-05-13T02:37:46.151Z,44.00
2023-05-13T02:38:48.360Z,44.00
2023-05-13T02:39:54.334Z,44.00
2023-05-13T02:40:58.904Z,43.90
2023-05-13T02:42:01.397Z,44.00
2023-05-13T02:43:07.449Z,43.90
2023-05-13T02:44:23.197Z,44.00
2023-05-13T02:45:25.567Z,43.90
2023-05-13T02:46:32.028Z,44.00
2023-05-13T02:47:34.355Z,44.00
2023-05-13T02:48:40.493Z,44.00
2023-05-13T02:49:42.802Z,44.00
2023-05-13T02:50:45.144Z,44.00
2023-05-13T02:51:47.587Z,44.00
2023-05-13T02:52:50.690Z,44.00
2023-05-13T02:53:52.976Z,44.00
2023-05-13T02:54:55.992Z,44.00
2023-05-13T02:55:59.347Z,44.00
2023-05-13T02:57:02.074Z,44.00
2023-05-13T02:58:04.662Z,44.00
2023-05-13T02:59:07.122Z,44.00
2023-05-13T03:00:09.782Z,44.00
2023-05-13T03:01:12.220Z,44.00
2023-05-13T03:02:14.707Z,44.00
2023-05-13T03:03:17.379Z,43.90
2023-05-13T03:04:19.980Z,44.00
2023-05-13T03:05:22.260Z,44.00
2023-05-13T03:06:24.604Z,44.00
2023-05-13T03:07:27.105Z,44.00
2023-05-13T03:08:29.365Z,43.90
2023-05-13T03:09:31.639Z,44.00
2023-05-13T03:10:34.548Z,44.00
2023-05-13T03:11:37.122Z,44.00
2023-05-13T03:12:41.072Z,44.00
2023-05-13T03:13:43.292Z,44.00
2023-05-13T03:14:45.671Z,44.00
2023-05-13T03:15:47.952Z,44.00
2023-05-13T03:16:50.283Z,44.00
2023-05-13T03:17:52.785Z,43.90
2023-05-13T03:18:57.585Z,43.90
2023-05-13T03:20:00.243Z,44.00
2023-05-13T03:21:03.000Z,43.90
2023-05-13T03:22:05.876Z,44.00
2023-05-13T03:23:09.763Z,43.90
2023-05-13T03:24:12.301Z,44.00
2023-05-13T03:25:14.967Z,43.90
2023-05-13T03:26:31.546Z,44.00
2023-05-13T03:27:33.899Z,44.00
2023-05-13T03:28:36.243Z,44.00
2023-05-13T03:29:38.776Z,44.00
2023-05-13T03:30:41.363Z,44.00
2023-05-13T03:31:49.966Z,44.00
2023-05-13T03:32:52.293Z,44.00
2023-05-13T03:33:54.627Z,44.00
2023-05-13T03:34:57.720Z,43.90
2023-05-13T03:36:00.271Z,44.00
2023-05-13T03:37:06.733Z,44.00
2023-05-13T03:38:09.090Z,44.00
2023-05-13T03:39:16.323Z,44.00
2023-05-13T03:40:19.955Z,44.00
2023-05-13T03:41:24.547Z,44.00
2023-05-13T03:42:26.891Z,44.00
2023-05-13T03:43:32.544Z,44.00
2023-05-13T03:44:37.840Z,44.00
2023-05-13T03:45:40.081Z,44.00
2023-05-13T03:46:46.249Z,44.00
2023-05-13T03:47:49.747Z,44.00
2023-05-13T03:48:55.755Z,44.00
2023-05-13T03:49:58.215Z,44.00
2023-05-13T03:51:02.271Z,44.00
2023-05-13T03:52:07.817Z,44.00
2023-05-13T03:53:11.217Z,44.00
2023-05-13T03:54:14.378Z,44.00
2023-05-13T03:55:16.634Z,44.00
2023-05-13T03:56:18.891Z,44.00
2023-05-13T03:57:21.329Z,44.00
2023-05-13T03:58:23.636Z,44.00
2023-05-13T03:59:25.937Z,44.00
2023-05-13T04:00:28.937Z,44.00
2023-05-13T04:01:31.208Z,44.00
2023-05-13T04:02:35.916Z,44.00
2023-05-13T04:03:38.226Z,44.00
2023-05-13T04:04:40.552Z,44.00
2023-05-13T04:05:46.484Z,44.00
2023-05-13T04:06:48.705Z,44.60
2023-05-13T04:07:51.278Z,44.00
2023-05-13T04:08:53.492Z,44.00
2023-05-13T04:09:55.835Z,44.00
2023-05-13T04:10:59.432Z,44.00
2023-05-13T04:12:02.938Z,44.10
2023-05-13T04:13:05.878Z,44.00
2023-05-13T04:14:08.071Z,44.10
2023-05-13T04:15:10.793Z,44.00
2023-05-13T04:16:13.409Z,44.00
2023-05-13T04:17:17.445Z,44.00
2023-05-13T04:18:19.941Z,44.00
2023-05-13T04:19:22.188Z,44.00
2023-05-13T04:20:25.078Z,44.10
2023-05-13T04:21:27.755Z,44.00
2023-05-13T04:22:30.027Z,44.00
2023-05-13T04:23:32.583Z,44.00
2023-05-13T04:24:34.828Z,44.00
2023-05-13T04:25:37.754Z,44.10
2023-05-13T04:26:40.086Z,44.00
2023-05-13T04:27:43.717Z,44.00
2023-05-13T04:28:51.943Z,44.00
2023-05-13T04:29:54.786Z,44.00
2023-05-13T04:30:57.412Z,44.00
2023-05-13T04:31:59.610Z,44.00
2023-05-13T04:33:04.986Z,44.00
2023-05-13T04:34:08.374Z,44.00
2023-05-13T04:35:11.245Z,44.00
2023-05-13T04:36:16.376Z,44.00
2023-05-13T04:37:19.487Z,44.00
2023-05-13T04:38:22.566Z,44.00
2023-05-13T04:39:24.907Z,44.00
2023-05-13T04:40:27.211Z,44.00
2023-05-13T04:41:33.296Z,44.00
2023-05-13T04:42:37.019Z,44.00
2023-05-13T04:43:39.355Z,44.20
2023-05-13T04:44:43.810Z,44.00
2023-05-13T04:45:47.519Z,44.00
2023-05-13T04:46:49.876Z,44.00
2023-05-13T04:47:53.054Z,44.00
2023-05-13T04:48:56.290Z,44.00
2023-05-13T04:50:00.171Z,44.00
2023-05-13T04:51:02.902Z,44.10
2023-05-13T04:52:06.371Z,44.00
2023-05-13T04:53:12.710Z,44.00
2023-05-13T04:54:14.934Z,44.00
2023-05-13T04:55:17.241Z,44.10
2023-05-13T04:56:19.548Z,44.00
2023-05-13T04:57:21.925Z,44.00
2023-05-13T04:58:24.904Z,44.00
2023-05-13T04:59:27.187Z,44.10
2023-05-13T05:00:29.649Z,44.00
2023-05-13T05:01:31.923Z,44.00
2023-05-13T05:02:34.600Z,44.00
2023-05-13T05:03:36.894Z,44.10
2023-05-13T05:04:40.846Z,44.10
2023-05-13T05:05:48.262Z,44.10
2023-05-13T05:06:51.923Z,44.00
2023-05-13T05:07:54.178Z,44.00
2023-05-13T05:08:57.089Z,44.10
2023-05-13T05:10:00.234Z,44.10
2023-05-13T05:11:03.322Z,44.10
2023-05-13T05:12:08.242Z,44.00
2023-05-13T05:13:12.605Z,44.10
2023-05-13T05:14:14.951Z,44.10
2023-05-13T05:15:17.431Z,44.10
2023-05-13T05:16:22.688Z,44.10
2023-05-13T05:17:25.194Z,44.10
2023-05-13T05:18:27.667Z,44.10
2023-05-13T05:19:30.178Z,44.10
2023-05-13T05:20:32.658Z,44.10
2023-05-13T05:21:37.368Z,44.10
2023-05-13T05:22:41.797Z,44.10
2023-05-13T05:23:45.241Z,44.10
2023-05-13T05:24:48.234Z,44.10
2023-05-13T05:26:00.582Z,44.10
2023-05-13T05:27:10.757Z,44.10
2023-05-13T05:28:13.460Z,44.10
2023-05-13T05:29:18.283Z,44.10
2023-05-13T05:30:20.754Z,44.10
2023-05-13T05:31:30.902Z,44.20
2023-05-13T05:32:39.285Z,44.10
2023-05-13T05:33:42.362Z,44.10
2023-05-13T05:34:44.931Z,44.10
2023-05-13T05:35:47.178Z,44.10
2023-05-13T05:36:51.855Z,44.10
2023-05-13T05:37:56.591Z,44.10
2023-05-13T05:38:59.735Z,44.10
2023-05-13T05:40:07.873Z,44.20
2023-05-13T05:41:14.225Z,44.20
2023-05-13T05:42:16.548Z,44.20
2023-05-13T05:43:18.861Z,44.10
2023-05-13T05:44:21.471Z,44.10
2023-05-13T05:45:24.087Z,44.20
2023-05-13T05:46:26.446Z,44.10
2023-05-13T05:47:29.168Z,44.20
2023-05-13T05:48:34.390Z,44.10
2023-05-13T05:49:37.146Z,44.10
2023-05-13T05:50:41.274Z,44.20
2023-05-13T05:51:46.126Z,44.20
2023-05-13T05:52:48.504Z,44.20
2023-05-13T05:53:51.475Z,44.20
2023-05-13T05:54:54.817Z,44.20
2023-05-13T05:55:57.117Z,44.20
2023-05-13T05:57:01.117Z,44.20
2023-05-13T05:58:05.457Z,44.20
2023-05-13T05:59:09.652Z,44.20
2023-05-13T06:00:12.334Z,44.20
2023-05-13T06:01:17.793Z,44.20
2023-05-13T06:02:20.674Z,44.20
2023-05-13T06:03:24.542Z,44.20
2023-05-13T06:04:26.879Z,44.20
2023-05-13T06:05:29.159Z,44.20
2023-05-13T06:06:32.549Z,44.20
2023-05-13T06:07:35.423Z,44.20
2023-05-13T06:08:37.734Z,44.20
2023-05-13T06:09:40.518Z,44.20
2023-05-13T06:10:42.807Z,44.80
2023-05-13T06:11:45.680Z,44.20
2023-05-13T06:12:47.988Z,44.20
2023-05-13T06:13:51.039Z,44.20
2023-05-13T06:14:54.870Z,44.20
2023-05-13T06:15:58.248Z,44.20
2023-05-13T06:17:00.658Z,44.20
2023-05-13T06:18:05.584Z,44.30
2023-05-13T06:19:10.340Z,44.30
2023-05-13T06:20:14.286Z,44.30
2023-05-13T06:21:17.075Z,44.30
2023-05-13T06:22:21.647Z,44.30
2023-05-13T06:23:24.227Z,44.20
2023-05-13T06:24:27.180Z,44.30
2023-05-13T06:25:29.964Z,44.30
2023-05-13T06:26:32.163Z,44.30
2023-05-13T06:27:34.546Z,44.30
2023-05-13T06:28:36.912Z,44.30
2023-05-13T06:29:40.329Z,44.30
2023-05-13T06:30:43.922Z,44.30
2023-05-13T06:31:46.654Z,44.30
2023-05-13T06:33:00.183Z,44.30
2023-05-13T06:34:04.075Z,44.30
2023-05-13T06:35:06.539Z,44.40
2023-05-13T06:36:09.641Z,44.30
2023-05-13T06:37:13.623Z,44.30
2023-05-13T06:38:18.312Z,44.30
2023-05-13T06:39:21.558Z,44.30
2023-05-13T06:40:25.240Z,44.30
2023-05-13T06:41:27.785Z,44.40
2023-05-13T06:42:40.492Z,44.40
2023-05-13T06:43:49.863Z,44.30
2023-05-13T06:45:03.055Z,44.40
2023-05-13T06:46:06.760Z,44.50
2023-05-13T06:47:12.010Z,44.40
2023-05-13T06:48:14.658Z,44.40
2023-05-13T06:49:17.074Z,44.90
2023-05-13T06:50:19.717Z,44.40
2023-05-13T06:51:22.743Z,44.40
2023-05-13T06:52:25.345Z,44.40
2023-05-13T06:53:27.567Z,44.40
2023-05-13T06:54:32.099Z,44.30
2023-05-13T06:55:41.404Z,44.40
2023-05-13T06:56:46.517Z,44.40
2023-05-13T06:57:51.097Z,44.40
2023-05-13T06:58:53.393Z,44.40
2023-05-13T06:59:55.665Z,44.40
2023-05-13T07:00:57.958Z,44.40
2023-05-13T07:02:02.433Z,44.50
2023-05-13T07:03:05.742Z,44.50
2023-05-13T07:04:08.234Z,44.50
2023-05-13T07:05:11.654Z,44.40
2023-05-13T07:06:14.148Z,44.40
2023-05-13T07:07:17.684Z,44.50
2023-05-13T07:08:20.191Z,44.50
2023-05-13T07:09:22.404Z,44.40
2023-05-13T07:10:25.205Z,44.50
2023-05-13T07:11:29.020Z,44.50
2023-05-13T07:12:31.295Z,44.50
2023-05-13T07:13:34.864Z,44.40
2023-05-13T07:14:37.563Z,44.50
2023-05-13T07:15:39.842Z,44.40
2023-05-13T07:16:42.706Z,44.50
2023-05-13T07:17:45.014Z,44.50
2023-05-13T07:18:47.499Z,44.50
2023-05-13T07:19:49.758Z,44.50
2023-05-13T07:20:53.078Z,44.50
2023-05-13T07:21:55.407Z,44.50
2023-05-13T07:22:59.109Z,44.50
2023-05-13T07:24:02.309Z,44.50
2023-05-13T07:25:04.774Z,44.50
2023-05-13T07:26:07.145Z,44.60
2023-05-13T07:27:09.696Z,44.60
2023-05-13T07:28:12.154Z,44.50
2023-05-13T07:29:15.044Z,44.60
2023-05-13T07:30:17.291Z,44.60
2023-05-13T07:32:37.061Z,44.60
2023-05-13T07:33:39.723Z,44.60
2023-05-13T07:34:41.978Z,44.50
2023-05-13T07:35:44.571Z,44.50
2023-05-13T07:36:47.219Z,44.50
2023-05-13T07:37:49.493Z,44.60
2023-05-13T07:38:53.567Z,44.60
2023-05-13T07:39:56.300Z,44.60
2023-05-13T07:40:58.496Z,44.60
2023-05-13T07:42:01.234Z,44.60
2023-05-13T07:43:04.023Z,44.60
2023-05-13T07:44:11.605Z,44.60
2023-05-13T07:45:13.830Z,44.70
2023-05-13T07:46:16.444Z,44.60
2023-05-13T07:47:19.158Z,44.60
2023-05-13T07:48:21.494Z,44.70
2023-05-13T07:49:23.927Z,44.60
2023-05-13T07:50:26.661Z,44.60
2023-05-13T07:51:31.060Z,44.60
2023-05-13T07:52:33.633Z,44.60
2023-05-13T07:53:36.704Z,44.70
2023-05-13T07:54:39.060Z,44.70
2023-05-13T07:55:41.492Z,44.70
2023-05-13T07:56:46.419Z,44.60
2023-05-13T07:57:48.944Z,44.60
2023-05-13T07:58:51.149Z,44.70
2023-05-13T07:59:54.220Z,44.60
2023-05-13T08:00:56.476Z,44.60
2023-05-13T08:01:58.724Z,44.70
2023-05-13T08:03:02.345Z,44.70
2023-05-13T08:04:05.116Z,44.70
2023-05-13T08:05:07.730Z,44.50
2023-05-13T08:06:10.096Z,44.70
2023-05-13T08:07:12.398Z,44.70
2023-05-13T08:08:14.726Z,44.70
2023-05-13T08:09:17.328Z,44.70
2023-05-13T08:10:19.677Z,44.60
2023-05-13T08:11:22.632Z,44.70
2023-05-13T08:12:25.040Z,44.70
2023-05-13T08:13:27.378Z,44.70
2023-05-13T08:14:29.741Z,44.70
2023-05-13T08:15:31.969Z,44.70
2023-05-13T08:16:35.224Z,44.80
2023-05-13T08:17:37.498Z,44.70
2023-05-13T08:18:41.097Z,44.80
2023-05-13T08:19:44.465Z,44.70
2023-05-13T08:20:47.987Z,44.70
2023-05-13T08:21:50.382Z,44.70
2023-05-13T08:22:53.921Z,44.80
2023-05-13T08:23:56.875Z,44.70
2023-05-13T08:25:02.333Z,44.80
2023-05-13T08:26:05.964Z,44.70
2023-05-13T08:27:08.722Z,44.70
2023-05-13T08:28:10.972Z,44.70
2023-05-13T08:29:15.683Z,44.70
2023-05-13T08:31:34.392Z,44.70
2023-05-13T08:32:36.865Z,44.70
2023-05-13T08:33:40.159Z,44.80
2023-05-13T08:34:43.755Z,44.70
2023-05-13T08:35:47.512Z,44.80
2023-05-13T08:36:49.796Z,44.80
2023-05-13T08:37:51.984Z,44.80
2023-05-13T08:38:54.318Z,44.70
2023-05-13T08:39:59.896Z,44.70
2023-05-13T08:41:04.348Z,44.70
2023-05-13T08:42:08.335Z,44.70
2023-05-13T08:43:11.308Z,44.70
2023-05-13T08:44:14.195Z,44.80
2023-05-13T08:45:18.049Z,44.70
2023-05-13T08:46:26.058Z,44.80
2023-05-13T08:47:46.871Z,44.70
2023-05-13T08:48:49.479Z,44.70
2023-05-13T08:49:52.391Z,44.70
2023-05-13T08:50:55.368Z,45.10
2023-05-13T08:51:57.735Z,44.80
2023-05-13T08:53:00.459Z,44.80
2023-05-13T08:54:04.796Z,44.80
2023-05-13T08:55:08.735Z,44.70
2023-05-13T08:56:11.898Z,44.80
2023-05-13T08:57:14.154Z,44.80
2023-05-13T08:58:16.358Z,44.80
2023-05-13T08:59:20.402Z,44.80
2023-05-13T09:00:22.725Z,44.70
2023-05-13T09:01:27.754Z,44.80
2023-05-13T09:02:30.185Z,44.80
2023-05-13T09:03:32.933Z,44.80
2023-05-13T09:04:37.816Z,44.80
2023-05-13T09:05:41.968Z,44.80
2023-05-13T09:06:46.645Z,44.80
2023-05-13T09:07:48.906Z,44.80
2023-05-13T09:08:51.131Z,44.80
2023-05-13T09:09:53.418Z,44.80
2023-05-13T09:10:56.079Z,44.80
2023-05-13T09:11:58.380Z,44.80
2023-05-13T09:13:01.855Z,44.80
2023-05-13T09:14:07.037Z,44.80
2023-05-13T09:15:10.430Z,44.80
2023-05-13T09:16:14.297Z,44.80
2023-05-13T09:17:17.625Z,44.80
2023-05-13T09:18:21.448Z,44.80
2023-05-13T09:19:24.550Z,44.80
2023-05-13T09:20:27.727Z,44.80
2023-05-13T09:21:31.801Z,44.80
2023-05-13T09:22:34.066Z,44.80
2023-05-13T09:23:39.650Z,44.80
2023-05-13T09:24:53.102Z,44.80
2023-05-13T09:25:56.397Z,45.40
2023-05-13T09:26:58.704Z,44.80
2023-05-13T09:28:02.096Z,44.80
2023-05-13T09:29:24.948Z,44.80
2023-05-13T09:30:28.450Z,44.70
2023-05-13T09:31:33.795Z,44.80
2023-05-13T09:32:36.217Z,44.80
2023-05-13T09:33:38.870Z,44.80
2023-05-13T09:34:47.712Z,44.90
2023-05-13T09:35:52.815Z,44.80
2023-05-13T09:36:57.997Z,44.90
2023-05-13T09:38:00.270Z,44.80
2023-05-13T09:39:05.532Z,44.80
2023-05-13T09:40:10.698Z,44.80
2023-05-13T09:41:13.237Z,44.80
2023-05-13T09:42:18.540Z,44.80
2023-05-13T09:43:24.847Z,44.80
2023-05-13T09:44:28.372Z,44.80
2023-05-13T09:45:30.652Z,44.80
2023-05-13T09:46:34.429Z,44.80
2023-05-13T09:47:38.928Z,44.80
2023-05-13T09:48:45.579Z,44.80
2023-05-13T09:49:54.388Z,44.80
2023-05-13T09:50:58.321Z,44.80
2023-05-13T09:52:00.669Z,44.80
2023-05-13T09:53:12.265Z,44.80
2023-05-13T09:54:15.094Z,44.80
2023-05-13T09:55:17.368Z,44.80
2023-05-13T09:56:22.224Z,44.80
2023-05-13T09:57:26.638Z,44.80
2023-05-13T09:58:30.637Z,44.80
2023-05-13T09:59:34.928Z,44.80
2023-05-13T10:00:39.230Z,44.80
2023-05-13T10:01:43.744Z,44.80
2023-05-13T10:02:46.257Z,44.90
2023-05-13T10:03:48.749Z,44.90
2023-05-13T10:04:51.802Z,44.90
2023-05-13T10:05:55.149Z,44.90
2023-05-13T10:06:58.370Z,44.90
2023-05-13T10:08:02.231Z,44.90
2023-05-13T10:09:06.387Z,44.90
2023-05-13T10:10:09.455Z,44.90
2023-05-13T10:11:13.688Z,44.90
2023-05-13T10:12:17.366Z,44.90
2023-05-13T10:13:23.517Z,44.90
2023-05-13T10:14:25.777Z,44.90
2023-05-13T10:15:28.068Z,45.50
2023-05-13T10:16:33.179Z,44.90
2023-05-13T10:17:36.490Z,44.90
2023-05-13T10:18:38.932Z,44.90
2023-05-13T10:19:41.682Z,44.80
2023-05-13T10:20:44.189Z,44.90
2023-05-13T10:21:47.561Z,44.90
2023-05-13T10:22:50.795Z,44.90
2023-05-13T10:23:53.850Z,44.90
2023-05-13T10:24:59.770Z,44.90
2023-05-13T10:26:02.543Z,44.90
2023-05-13T10:27:06.523Z,44.90
2023-05-13T10:28:09.999Z,44.90
2023-05-13T10:29:13.131Z,44.90
2023-05-13T10:30:16.155Z,44.90
2023-05-13T10:31:21.072Z,44.90
2023-05-13T10:32:26.519Z,44.90
2023-05-13T10:33:29.755Z,44.90
2023-05-13T10:34:33.465Z,44.90
2023-05-13T10:35:39.168Z,44.90
2023-05-13T10:36:43.484Z,44.90
2023-05-13T10:37:54.659Z,44.90
2023-05-13T10:39:10.634Z,45.00
2023-05-13T10:40:31.695Z,44.90
2023-05-13T10:41:52.781Z,44.90
2023-05-13T10:43:11.505Z,44.90
2023-05-13T10:44:17.563Z,45.00
2023-05-13T10:45:19.881Z,45.00
2023-05-13T10:46:22.927Z,45.00
2023-05-13T10:47:25.430Z,45.00
2023-05-13T10:48:37.856Z,45.00
2023-05-13T10:49:40.488Z,45.00
2023-05-13T10:51:12.069Z,44.90
2023-05-13T10:52:14.430Z,45.00
2023-05-13T10:53:22.525Z,45.00
2023-05-13T10:54:27.713Z,45.00
2023-05-13T10:55:30.054Z,45.00
2023-05-13T10:56:32.730Z,45.00
2023-05-13T10:57:38.295Z,45.00
2023-05-13T10:58:40.771Z,45.00
2023-05-13T11:00:01.491Z,45.00
2023-05-13T11:01:13.542Z,45.00
2023-05-13T11:02:22.359Z,45.00
2023-05-13T11:03:29.810Z,45.00
2023-05-13T11:04:32.154Z,45.60
2023-05-13T11:05:35.037Z,45.00
2023-05-13T11:06:41.395Z,45.00
2023-05-13T11:07:54.278Z,45.00
2023-05-13T11:08:56.563Z,45.00
2023-05-13T11:10:00.020Z,45.10
2023-05-13T11:11:02.374Z,45.00
2023-05-13T11:12:05.064Z,45.00
2023-05-13T11:13:13.085Z,45.00
2023-05-13T11:14:20.126Z,45.00
2023-05-13T11:15:22.456Z,45.00
2023-05-13T11:16:24.757Z,45.00
2023-05-13T11:17:27.042Z,45.00
2023-05-13T11:18:30.277Z,45.00
2023-05-13T11:19:36.208Z,45.00
2023-05-13T11:20:51.602Z,45.00
2023-05-13T11:21:58.998Z,45.00
2023-05-13T11:23:01.444Z,45.10
2023-05-13T11:24:05.790Z,45.00
2023-05-13T11:25:09.303Z,45.10
2023-05-13T11:26:17.154Z,45.00
2023-05-13T11:27:21.023Z,45.00
2023-05-13T11:28:42.061Z,45.00
2023-05-13T11:29:51.424Z,45.00
2023-05-13T11:30:57.475Z,45.00
2023-05-13T11:32:00.998Z,45.00
2023-05-13T11:33:08.402Z,45.00
2023-05-13T11:34:11.680Z,45.00
2023-05-13T11:35:19.017Z,45.00
2023-05-13T11:36:21.235Z,45.00
2023-05-13T11:37:23.659Z,45.00
2023-05-13T11:38:26.288Z,45.00
2023-05-13T11:39:28.730Z,45.00
2023-05-13T11:40:35.448Z,45.00
2023-05-13T11:41:38.568Z,44.90
2023-05-13T11:42:41.575Z,45.00
2023-05-13T11:43:44.833Z,45.00
2023-05-13T11:44:47.254Z,45.00
2023-05-13T11:45:50.329Z,44.90
2023-05-13T11:46:56.171Z,45.00
2023-05-13T11:47:59.105Z,45.00
2023-05-13T11:49:01.461Z,45.00
2023-05-13T11:50:17.251Z,44.90
2023-05-13T11:51:20.528Z,45.00
2023-05-13T11:52:22.914Z,44.90
2023-05-13T11:53:25.194Z,45.00
2023-05-13T11:54:28.004Z,45.00
2023-05-13T11:55:35.420Z,45.00
2023-05-13T11:56:38.150Z,45.00
2023-05-13T11:57:42.127Z,45.00
2023-05-13T11:58:44.722Z,44.90
2023-05-13T11:59:53.959Z,45.00
2023-05-13T12:00:57.292Z,45.00
2023-05-13T12:02:01.657Z,45.00
2023-05-13T12:03:11.652Z,45.00
2023-05-13T12:04:14.134Z,44.90
2023-05-13T12:05:17.190Z,45.00
2023-05-13T12:06:19.555Z,45.00
2023-05-13T12:07:22.731Z,45.00
2023-05-13T12:08:24.953Z,45.00
2023-05-13T12:09:27.279Z,44.90
2023-05-13T12:10:29.948Z,45.00
2023-05-13T12:11:32.341Z,45.00
2023-05-13T12:12:39.360Z,45.00
2023-05-13T12:13:42.052Z,44.90
2023-05-13T12:14:46.216Z,44.90
2023-05-13T12:15:49.666Z,45.00
2023-05-13T12:16:53.903Z,45.00
2023-05-13T12:17:56.293Z,44.90
2023-05-13T12:19:06.056Z,44.90
2023-05-13T12:20:13.265Z,44.90
2023-05-13T12:21:17.425Z,44.90
2023-05-13T12:22:23.105Z,44.90
2023-05-13T12:23:25.352Z,44.90
2023-05-13T12:24:28.786Z,44.90
2023-05-13T12:25:31.437Z,44.90
2023-05-13T12:26:35.036Z,44.90
2023-05-13T12:27:37.252Z,45.00
2023-05-13T12:28:39.512Z,44.90
2023-05-13T12:29:45.044Z,44.90
2023-05-13T12:30:56.673Z,44.90
2023-05-13T12:32:03.597Z,45.00
2023-05-13T12:33:13.066Z,44.90
2023-05-13T12:34:29.845Z,44.80
2023-05-13T12:35:32.610Z,44.90
2023-05-13T12:36:38.502Z,44.80
2023-05-13T12:37:41.571Z,44.90
2023-05-13T12:39:00.650Z,44.80
2023-05-13T12:40:13.368Z,44.90
2023-05-13T12:41:17.728Z,44.90
2023-05-13T12:42:19.938Z,44.90
2023-05-13T12:43:22.834Z,44.90
2023-05-13T12:44:26.742Z,44.90
2023-05-13T12:45:33.158Z,44.90
2023-05-13T12:46:35.855Z,44.90
2023-05-13T12:47:50.918Z,44.90
2023-05-13T12:48:54.898Z,44.80
2023-05-13T12:49:58.407Z,44.90
2023-05-13T12:51:02.115Z,44.90
2023-05-13T12:52:05.023Z,44.90
2023-05-13T12:53:07.436Z,44.90
2023-05-13T12:54:10.772Z,44.80
2023-05-13T12:55:13.293Z,44.90
2023-05-13T12:56:16.117Z,44.80
2023-05-13T12:57:20.533Z,44.80
2023-05-13T12:58:23.135Z,44.80
2023-05-13T12:59:27.905Z,44.90
2023-05-13T13:00:30.733Z,44.80
2023-05-13T13:01:33.058Z,44.80
2023-05-13T13:02:35.372Z,44.80
2023-05-13T13:03:38.152Z,44.90
2023-05-13T13:04:40.802Z,44.80
2023-05-13T13:05:43.090Z,44.80
2023-05-13T13:06:45.661Z,44.80
2023-05-13T13:07:48.064Z,44.80
2023-05-13T13:08:50.718Z,44.80
2023-05-13T13:09:53.034Z,44.70
2023-05-13T13:10:56.060Z,44.80
2023-05-13T13:11:59.064Z,44.70
2023-05-13T13:13:02.211Z,44.90
2023-05-13T13:14:04.421Z,44.80
2023-05-13T13:15:07.504Z,44.80
2023-05-13T13:16:11.197Z,44.70
2023-05-13T13:17:14.838Z,44.80
2023-05-13T13:18:18.130Z,44.70
2023-05-13T13:19:20.539Z,44.70
2023-05-13T13:20:22.916Z,44.80
2023-05-13T13:21:25.953Z,44.70
2023-05-13T13:22:28.177Z,44.70
2023-05-13T13:23:30.988Z,44.80
2023-05-13T13:24:33.293Z,44.70
2023-05-13T13:25:37.424Z,44.80
2023-05-13T13:26:40.621Z,44.70
2023-05-13T13:27:42.856Z,44.80
2023-05-13T13:28:45.616Z,44.70
2023-05-13T13:29:47.999Z,44.80
2023-05-13T13:30:50.363Z,44.80
2023-05-13T13:31:52.743Z,44.70
2023-05-13T13:32:56.074Z,44.70
2023-05-13T13:34:04.278Z,44.70
2023-05-13T13:35:07.561Z,44.70
2023-05-13T13:36:09.941Z,44.70
2023-05-13T13:37:12.160Z,44.80
2023-05-13T13:38:15.712Z,44.70
2023-05-13T13:39:17.995Z,44.70
2023-05-13T13:40:20.508Z,44.70
2023-05-13T13:41:25.574Z,44.70
2023-05-13T13:42:40.228Z,44.70
2023-05-13T13:43:45.254Z,44.70
2023-05-13T13:44:47.499Z,44.80
2023-05-13T13:45:50.142Z,44.70
2023-05-13T13:46:52.410Z,44.80
2023-05-13T13:47:55.779Z,44.70